Impacts TAF Board
For situational awareness. Not to be used for flight planning purposes.
IDs:

KMDW - Chicago/Midway Intl, IL, US

Issued at 1750 UTC 20 Sep 2018
Updated at 2025 UTC 20 Sep 2018
Potential Impact None Slight Moderate High
Time<<21/21Z 21/22Z 21/23Z 22/00Z 22/01Z 22/02Z 22/03Z 22/04Z 22/05Z 22/06Z 22/07Z 22/08Z 22/09Z
Type PRVL PRVL PRVL
VIS >6 >6 >6
CIG 120 120 120
Cover BKN BKN BKN
FltCat VFR VFR VFR
WX -- -- --
WDir 310 310 310
WSpd 15 15 15
WGst 23 23 23
Raw TAF
KMDW 201750Z 2018/2124 20008KT P6SM SCT050
  FM202100 19012G19KT P6SM SCT050 SCT150
  FM210300 21018G29KT P6SM FEW050 FEW250 WS015/21050KT
  TEMPO 2109/2111 -SHRA
  FM211100 24017G26KT P6SM SCT020 BKN070
  FM211500 28016G25KT P6SM SCT025 BKN050
  FM212100 31015G23KT P6SM SCT050 BKN120


METAR Board
Radar Display
Forecast Discussion
For situational awareness. Not to be used for flight planning purposes.